sensor_id;sensor_type;location;lat;lon;timestamp;temperature;humidity
6098;DHT22;3077;50.922;6.584;2023-10-09T00:00:53;18.40;99.90
6098;DHT22;3077;50.922;6.584;2023-10-09T00:03:27;18.50;99.90
6098;DHT22;3077;50.922;6.584;2023-10-09T00:05:53;18.50;99.90
6098;DHT22;3077;50.922;6.584;2023-10-09T00:08:19;18.50;99.90
6098;DHT22;3077;50.922;6.584;2023-10-09T00:10:52;18.60;99.90
6098;DHT22;3077;50.922;6.584;2023-10-09T00:13:23;18.70;99.90
6098;DHT22;3077;50.922;6.584;2023-10-09T00:16:04;18.70;99.90
6098;DHT22;3077;50.922;6.584;2023-10-09T00:18:40;18.70;99.90
6098;DHT22;3077;50.922;6.584;2023-10-09T00:21:17;18.70;99.90
6098;DHT22;3077;50.922;6.584;2023-10-09T00:23:46;18.70;99.90
6098;DHT22;3077;50.922;6.584;2023-10-09T00:26:20;18.70;99.90
6098;DHT22;3077;50.922;6.584;2023-10-09T00:28:46;18.70;99.90
6098;DHT22;3077;50.922;6.584;2023-10-09T00:31:15;18.70;99.90
6098;DHT22;3077;50.922;6.584;2023-10-09T00:33:44;18.60;99.90
6098;DHT22;3077;50.922;6.584;2023-10-09T00:36:11;18.70;99.90
6098;DHT22;3077;50.922;6.584;2023-10-09T00:38:39;18.70;99.90
6098;DHT22;3077;50.922;6.584;2023-10-09T00:41:09;18.70;99.90
6098;DHT22;3077;50.922;6.584;2023-10-09T00:43:37;18.60;99.90
6098;DHT22;3077;50.922;6.584;2023-10-09T00:46:05;18.60;99.90
6098;DHT22;3077;50.922;6.584;2023-10-09T00:48:37;18.60;99.90
6098;DHT22;3077;50.922;6.584;2023-10-09T00:51:07;18.60;99.90
6098;DHT22;3077;50.922;6.584;2023-10-09T00:53:44;18.50;99.90
6098;DHT22;3077;50.922;6.584;2023-10-09T00:56:14;18.50;99.90
6098;DHT22;3077;50.922;6.584;2023-10-09T00:58:57;18.50;99.90
6098;DHT22;3077;50.922;6.584;2023-10-09T01:01:40;18.50;99.90
6098;DHT22;3077;50.922;6.584;2023-10-09T01:04:10;18.50;99.90
6098;DHT22;3077;50.922;6.584;2023-10-09T01:06:41;18.50;99.90
6098;DHT22;3077;50.922;6.584;2023-10-09T01:09:14;18.40;99.90
6098;DHT22;3077;50.922;6.584;2023-10-09T01:11:44;18.40;99.90
6098;DHT22;3077;50.922;6.584;2023-10-09T01:14:15;18.50;99.90
6098;DHT22;3077;50.922;6.584;2023-10-09T01:16:41;18.60;99.90
6098;DHT22;3077;50.922;6.584;2023-10-09T01:19:12;18.50;99.90
6098;DHT22;3077;50.922;6.584;2023-10-09T01:21:56;18.60;99.90
6098;DHT22;3077;50.922;6.584;2023-10-09T01:24:38;18.60;99.90
6098;DHT22;3077;50.922;6.584;2023-10-09T01:27:05;18.60;99.90
6098;DHT22;3077;50.922;6.584;2023-10-09T01:29:36;18.60;99.90
6098;DHT22;3077;50.922;6.584;2023-10-09T01:32:02;18.60;99.90
6098;DHT22;3077;50.922;6.584;2023-10-09T01:34:32;18.70;99.90
6098;DHT22;3077;50.922;6.584;2023-10-09T01:37:08;18.70;99.90
6098;DHT22;3077;50.922;6.584;2023-10-09T01:39:56;18.90;99.90
6098;DHT22;3077;50.922;6.584;2023-10-09T01:42:41;18.70;99.90
6098;DHT22;3077;50.922;6.584;2023-10-09T01:45:12;18.70;99.90
6098;DHT22;3077;50.922;6.584;2023-10-09T01:47:52;18.70;99.90
6098;DHT22;3077;50.922;6.584;2023-10-09T01:50:19;18.80;99.90
6098;DHT22;3077;50.922;6.584;2023-10-09T01:52:47;18.70;99.90
6098;DHT22;3077;50.922;6.584;2023-10-09T01:55:13;18.70;99.90
6098;DHT22;3077;50.922;6.584;2023-10-09T01:57:53;18.70;99.90
6098;DHT22;3077;50.922;6.584;2023-10-09T02:00:18;18.70;99.90
6098;DHT22;3077;50.922;6.584;2023-10-09T02:02:49;18.70;99.90
6098;DHT22;3077;50.922;6.584;2023-10-09T02:05:16;18.80;99.90
6098;DHT22;3077;50.922;6.584;2023-10-09T02:07:42;18.80;99.90
6098;DHT22;3077;50.922;6.584;2023-10-09T02:10:20;18.70;99.90
6098;DHT22;3077;50.922;6.584;2023-10-09T02:12:56;18.70;99.90
6098;DHT22;3077;50.922;6.584;2023-10-09T02:15:29;18.70;99.90
6098;DHT22;3077;50.922;6.584;2023-10-09T02:18:15;18.80;99.90
6098;DHT22;3077;50.922;6.584;2023-10-09T02:20:44;18.70;99.90
6098;DHT22;3077;50.922;6.584;2023-10-09T02:23:20;18.70;99.90
6098;DHT22;3077;50.922;6.584;2023-10-09T02:25:49;18.80;99.90
6098;DHT22;3077;50.922;6.584;2023-10-09T02:28:18;18.70;99.90
6098;DHT22;3077;50.922;6.584;2023-10-09T02:30:47;18.70;99.90
6098;DHT22;3077;50.922;6.584;2023-10-09T02:33:17;18.70;99.90
6098;DHT22;3077;50.922;6.584;2023-10-09T02:35:58;18.70;99.90
6098;DHT22;3077;50.922;6.584;2023-10-09T02:38:31;18.70;99.90
6098;DHT22;3077;50.922;6.584;2023-10-09T02:40:59;18.70;99.90
6098;DHT22;3077;50.922;6.584;2023-10-09T02:43:29;18.70;99.90
6098;DHT22;3077;50.922;6.584;2023-10-09T02:46:06;18.60;99.90
6098;DHT22;3077;50.922;6.584;2023-10-09T02:48:49;18.60;99.90
6098;DHT22;3077;50.922;6.584;2023-10-09T02:51:22;18.50;99.90
6098;DHT22;3077;50.922;6.584;2023-10-09T02:54:01;18.40;99.90
6098;DHT22;3077;50.922;6.584;2023-10-09T02:56:45;18.40;99.90
6098;DHT22;3077;50.922;6.584;2023-10-09T02:59:13;18.40;99.90
6098;DHT22;3077;50.922;6.584;2023-10-09T03:01:40;18.50;99.90
6098;DHT22;3077;50.922;6.584;2023-10-09T03:04:06;18.60;99.90
6098;DHT22;3077;50.922;6.584;2023-10-09T03:06:32;18.60;99.90
6098;DHT22;3077;50.922;6.584;2023-10-09T03:09:01;18.60;99.90
6098;DHT22;3077;50.922;6.584;2023-10-09T03:11:48;18.60;99.90
6098;DHT22;3077;50.922;6.584;2023-10-09T03:14:19;18.50;99.90
6098;DHT22;3077;50.922;6.584;2023-10-09T03:16:46;18.50;99.90
6098;DHT22;3077;50.922;6.584;2023-10-09T03:19:13;18.50;99.90
6098;DHT22;3077;50.922;6.584;2023-10-09T03:21:39;18.50;99.90
6098;DHT22;3077;50.922;6.584;2023-10-09T03:24:08;18.50;99.90
6098;DHT22;3077;50.922;6.584;2023-10-09T03:26:34;18.50;99.90
6098;DHT22;3077;50.922;6.584;2023-10-09T03:29:00;18.50;99.90
6098;DHT22;3077;50.922;6.584;2023-10-09T03:31:32;18.50;99.90
6098;DHT22;3077;50.922;6.584;2023-10-09T03:33:59;18.50;99.90
6098;DHT22;3077;50.922;6.584;2023-10-09T03:36:25;18.60;99.90
6098;DHT22;3077;50.922;6.584;2023-10-09T03:38:52;18.60;99.90
6098;DHT22;3077;50.922;6.584;2023-10-09T03:41:20;18.60;99.90
6098;DHT22;3077;50.922;6.584;2023-10-09T03:43:47;18.60;99.90
6098;DHT22;3077;50.922;6.584;2023-10-09T03:46:12;18.50;99.90
6098;DHT22;3077;50.922;6.584;2023-10-09T03:48:49;18.50;99.90
6098;DHT22;3077;50.922;6.584;2023-10-09T03:51:15;18.40;99.90
6098;DHT22;3077;50.922;6.584;2023-10-09T03:53:47;18.40;99.90
6098;DHT22;3077;50.922;6.584;2023-10-09T03:56:14;18.30;99.90
6098;DHT22;3077;50.922;6.584;2023-10-09T03:58:51;18.30;99.90
6098;DHT22;3077;50.922;6.584;2023-10-09T04:01:21;18.30;99.90
6098;DHT22;3077;50.922;6.584;2023-10-09T04:03:50;18.30;99.90
6098;DHT22;3077;50.922;6.584;2023-10-09T04:06:28;18.30;99.90
6098;DHT22;3077;50.922;6.584;2023-10-09T04:09:08;18.30;99.90
6098;DHT22;3077;50.922;6.584;2023-10-09T04:11:40;18.30;99.90
6098;DHT22;3077;50.922;6.584;2023-10-09T04:14:12;18.30;99.90
6098;DHT22;3077;50.922;6.584;2023-10-09T04:16:47;18.30;99.90
6098;DHT22;3077;50.922;6.584;2023-10-09T04:19:30;18.30;99.90
6098;DHT22;3077;50.922;6.584;2023-10-09T04:22:04;18.30;99.90
6098;DHT22;3077;50.922;6.584;2023-10-09T04:24:33;18.30;99.90
6098;DHT22;3077;50.922;6.584;2023-10-09T04:27:07;18.30;99.90
6098;DHT22;3077;50.922;6.584;2023-10-09T04:29:34;18.20;99.90
6098;DHT22;3077;50.922;6.584;2023-10-09T04:32:12;18.20;99.90
6098;DHT22;3077;50.922;6.584;2023-10-09T04:34:42;18.20;99.90
6098;DHT22;3077;50.922;6.584;2023-10-09T04:37:15;18.30;99.90
6098;DHT22;3077;50.922;6.584;2023-10-09T04:39:41;18.20;99.90
6098;DHT22;3077;50.922;6.584;2023-10-09T04:42:14;18.20;99.90
6098;DHT22;3077;50.922;6.584;2023-10-09T04:45:07;18.20;99.90
6098;DHT22;3077;50.922;6.584;2023-10-09T04:47:36;18.20;99.90
6098;DHT22;3077;50.922;6.584;2023-10-09T04:50:06;18.20;99.90
6098;DHT22;3077;50.922;6.584;2023-10-09T04:52:34;18.20;99.90
6098;DHT22;3077;50.922;6.584;2023-10-09T04:55:00;18.20;99.90
6098;DHT22;3077;50.922;6.584;2023-10-09T04:57:38;18.20;99.90
6098;DHT22;3077;50.922;6.584;2023-10-09T05:00:15;18.20;99.90
6098;DHT22;3077;50.922;6.584;2023-10-09T05:03:00;18.20;99.90
6098;DHT22;3077;50.922;6.584;2023-10-09T05:05:49;18.10;99.90
6098;DHT22;3077;50.922;6.584;2023-10-09T05:08:24;18.10;99.90
6098;DHT22;3077;50.922;6.584;2023-10-09T05:10:57;18.10;99.90
6098;DHT22;3077;50.922;6.584;2023-10-09T05:13:34;18.10;99.90
6098;DHT22;3077;50.922;6.584;2023-10-09T05:16:07;18.10;99.90
6098;DHT22;3077;50.922;6.584;2023-10-09T05:18:38;18.00;99.90
6098;DHT22;3077;50.922;6.584;2023-10-09T05:21:04;18.00;99.90
6098;DHT22;3077;50.922;6.584;2023-10-09T05:23:42;18.00;99.90
6098;DHT22;3077;50.922;6.584;2023-10-09T05:26:15;18.00;99.90
6098;DHT22;3077;50.922;6.584;2023-10-09T05:28:59;18.00;99.90
6098;DHT22;3077;50.922;6.584;2023-10-09T05:31:24;17.90;99.90
6098;DHT22;3077;50.922;6.584;2023-10-09T05:34:19;17.90;99.90
6098;DHT22;3077;50.922;6.584;2023-10-09T05:36:47;17.90;99.90
6098;DHT22;3077;50.922;6.584;2023-10-09T05:39:13;17.80;99.90
6098;DHT22;3077;50.922;6.584;2023-10-09T05:41:44;17.80;99.90
6098;DHT22;3077;50.922;6.584;2023-10-09T05:44:17;17.90;99.90
6098;DHT22;3077;50.922;6.584;2023-10-09T05:47:02;17.90;99.90
6098;DHT22;3077;50.922;6.584;2023-10-09T05:49:46;17.90;99.90
6098;DHT22;3077;50.922;6.584;2023-10-09T05:52:13;17.90;99.90
6098;DHT22;3077;50.922;6.584;2023-10-09T05:55:14;17.90;99.90
6098;DHT22;3077;50.922;6.584;2023-10-09T05:58:05;17.80;99.90
6098;DHT22;3077;50.922;6.584;2023-10-09T06:00:34;17.90;99.90
6098;DHT22;3077;50.922;6.584;2023-10-09T06:03:19;17.90;99.90
6098;DHT22;3077;50.922;6.584;2023-10-09T06:08:30;17.90;99.90
6098;DHT22;3077;50.922;6.584;2023-10-09T06:11:11;17.90;99.90
6098;DHT22;3077;50.922;6.584;2023-10-09T06:13:57;18.00;99.90
6098;DHT22;3077;50.922;6.584;2023-10-09T06:16:33;18.10;99.90
6098;DHT22;3077;50.922;6.584;2023-10-09T06:19:14;18.00;99.90
6098;DHT22;3077;50.922;6.584;2023-10-09T06:21:49;18.00;99.90
6098;DHT22;3077;50.922;6.584;2023-10-09T06:24:18;18.10;99.90
6098;DHT22;3077;50.922;6.584;2023-10-09T06:26:45;18.10;99.90
6098;DHT22;3077;50.922;6.584;2023-10-09T06:29:26;18.10;99.90
6098;DHT22;3077;50.922;6.584;2023-10-09T06:32:17;18.10;99.90
6098;DHT22;3077;50.922;6.584;2023-10-09T06:34:45;18.10;99.90
6098;DHT22;3077;50.922;6.584;2023-10-09T06:37:12;18.10;99.90
6098;DHT22;3077;50.922;6.584;2023-10-09T06:39:58;18.40;99.90
6098;DHT22;3077;50.922;6.584;2023-10-09T06:42:24;18.10;99.90
6098;DHT22;3077;50.922;6.584;2023-10-09T06:45:07;18.20;99.90
6098;DHT22;3077;50.922;6.584;2023-10-09T06:47:44;18.20;99.90
6098;DHT22;3077;50.922;6.584;2023-10-09T06:50:30;18.10;99.90
6098;DHT22;3077;50.922;6.584;2023-10-09T06:53:14;18.10;99.90
6098;DHT22;3077;50.922;6.584;2023-10-09T06:55:40;18.10;99.90
6098;DHT22;3077;50.922;6.584;2023-10-09T06:58:18;18.10;99.90
6098;DHT22;3077;50.922;6.584;2023-10-09T07:00:55;18.20;99.90
6098;DHT22;3077;50.922;6.584;2023-10-09T07:03:24;18.10;99.90
6098;DHT22;3077;50.922;6.584;2023-10-09T07:06:10;18.10;99.90
6098;DHT22;3077;50.922;6.584;2023-10-09T07:08:50;18.20;99.90
6098;DHT22;3077;50.922;6.584;2023-10-09T07:11:35;18.20;99.90
6098;DHT22;3077;50.922;6.584;2023-10-09T07:17:06;18.30;99.90
6098;DHT22;3077;50.922;6.584;2023-10-09T07:19:47;18.40;99.90
6098;DHT22;3077;50.922;6.584;2023-10-09T07:22:16;18.40;99.90
6098;DHT22;3077;50.922;6.584;2023-10-09T07:24:55;18.50;99.90
6098;DHT22;3077;50.922;6.584;2023-10-09T07:27:24;18.50;99.90
6098;DHT22;3077;50.922;6.584;2023-10-09T07:30:10;18.50;99.90
6098;DHT22;3077;50.922;6.584;2023-10-09T07:32:57;18.50;99.90
6098;DHT22;3077;50.922;6.584;2023-10-09T07:35:40;18.40;99.90
6098;DHT22;3077;50.922;6.584;2023-10-09T07:40:38;18.40;99.90
6098;DHT22;3077;50.922;6.584;2023-10-09T07:43:28;18.40;99.90
6098;DHT22;3077;50.922;6.584;2023-10-09T07:46:10;18.50;99.90
6098;DHT22;3077;50.922;6.584;2023-10-09T07:49:13;18.50;99.90
6098;DHT22;3077;50.922;6.584;2023-10-09T07:51:40;18.40;99.90
6098;DHT22;3077;50.922;6.584;2023-10-09T07:54:11;18.40;99.90
6098;DHT22;3077;50.922;6.584;2023-10-09T07:56:43;18.40;99.90
6098;DHT22;3077;50.922;6.584;2023-10-09T07:59:11;18.40;99.90
6098;DHT22;3077;50.922;6.584;2023-10-09T08:01:41;18.40;99.90
6098;DHT22;3077;50.922;6.584;2023-10-09T08:04:20;18.40;99.90
6098;DHT22;3077;50.922;6.584;2023-10-09T08:07:10;18.40;99.90
6098;DHT22;3077;50.922;6.584;2023-10-09T08:09:44;18.50;99.90
6098;DHT22;3077;50.922;6.584;2023-10-09T08:12:14;18.50;99.90
6098;DHT22;3077;50.922;6.584;2023-10-09T08:15:05;18.50;99.90
6098;DHT22;3077;50.922;6.584;2023-10-09T08:17:57;18.60;99.90
6098;DHT22;3077;50.922;6.584;2023-10-09T08:20:35;18.70;99.90
6098;DHT22;3077;50.922;6.584;2023-10-09T08:23:16;18.70;99.90
6098;DHT22;3077;50.922;6.584;2023-10-09T08:26:03;18.60;99.90
6098;DHT22;3077;50.922;6.584;2023-10-09T08:28:42;18.70;99.90
6098;DHT22;3077;50.922;6.584;2023-10-09T08:31:15;18.80;99.90
6098;DHT22;3077;50.922;6.584;2023-10-09T08:33:48;18.90;99.90
6098;DHT22;3077;50.922;6.584;2023-10-09T08:36:27;19.00;99.90
6098;DHT22;3077;50.922;6.584;2023-10-09T08:39:02;19.10;99.90
6098;DHT22;3077;50.922;6.584;2023-10-09T08:41:40;19.10;99.90
6098;DHT22;3077;50.922;6.584;2023-10-09T08:44:07;19.10;99.90
6098;DHT22;3077;50.922;6.584;2023-10-09T08:46:32;19.10;99.90
6098;DHT22;3077;50.922;6.584;2023-10-09T08:48:59;19.10;99.90
6098;DHT22;3077;50.922;6.584;2023-10-09T08:51:26;19.10;99.90
6098;DHT22;3077;50.922;6.584;2023-10-09T08:53:53;19.10;99.90
6098;DHT22;3077;50.922;6.584;2023-10-09T08:56:21;19.20;99.90
6098;DHT22;3077;50.922;6.584;2023-10-09T08:58:56;19.30;99.90
6098;DHT22;3077;50.922;6.584;2023-10-09T09:01:23;19.40;99.90
6098;DHT22;3077;50.922;6.584;2023-10-09T09:03:51;19.40;99.90
6098;DHT22;3077;50.922;6.584;2023-10-09T09:06:19;19.40;99.90
6098;DHT22;3077;50.922;6.584;2023-10-09T09:08:46;19.60;99.90
6098;DHT22;3077;50.922;6.584;2023-10-09T09:11:16;19.80;99.90
6098;DHT22;3077;50.922;6.584;2023-10-09T09:16:28;19.80;99.90
6098;DHT22;3077;50.922;6.584;2023-10-09T09:19:02;19.90;99.90
6098;DHT22;3077;50.922;6.584;2023-10-09T09:21:51;19.90;99.90
6098;DHT22;3077;50.922;6.584;2023-10-09T09:24:20;20.00;99.90
6098;DHT22;3077;50.922;6.584;2023-10-09T09:26:46;20.10;99.90
6098;DHT22;3077;50.922;6.584;2023-10-09T09:29:13;20.20;99.90
6098;DHT22;3077;50.922;6.584;2023-10-09T09:31:52;20.40;99.90
6098;DHT22;3077;50.922;6.584;2023-10-09T09:34:18;20.50;99.90
6098;DHT22;3077;50.922;6.584;2023-10-09T09:36:53;20.50;99.90
6098;DHT22;3077;50.922;6.584;2023-10-09T09:39:24;20.50;99.90
6098;DHT22;3077;50.922;6.584;2023-10-09T09:41:57;20.60;99.90
6098;DHT22;3077;50.922;6.584;2023-10-09T09:44:31;20.70;99.90
6098;DHT22;3077;50.922;6.584;2023-10-09T09:47:00;20.80;99.90
6098;DHT22;3077;50.922;6.584;2023-10-09T09:49:27;20.90;99.90
6098;DHT22;3077;50.922;6.584;2023-10-09T09:52:00;21.00;99.90
6098;DHT22;3077;50.922;6.584;2023-10-09T09:54:26;21.10;99.90
6098;DHT22;3077;50.922;6.584;2023-10-09T09:56:54;21.10;99.90
6098;DHT22;3077;50.922;6.584;2023-10-09T09:59:26;21.20;99.90
6098;DHT22;3077;50.922;6.584;2023-10-09T10:01:59;21.20;99.90
6098;DHT22;3077;50.922;6.584;2023-10-09T10:04:32;21.30;99.90
6098;DHT22;3077;50.922;6.584;2023-10-09T10:07:02;21.40;99.90
6098;DHT22;3077;50.922;6.584;2023-10-09T10:12:07;21.60;99.90
6098;DHT22;3077;50.922;6.584;2023-10-09T10:14:55;21.60;99.90
6098;DHT22;3077;50.922;6.584;2023-10-09T10:17:27;21.70;99.90
6098;DHT22;3077;50.922;6.584;2023-10-09T10:22:28;22.00;99.90
6098;DHT22;3077;50.922;6.584;2023-10-09T10:24:55;22.10;99.90
6098;DHT22;3077;50.922;6.584;2023-10-09T10:27:25;22.20;99.90
6098;DHT22;3077;50.922;6.584;2023-10-09T10:35:21;22.10;99.90
6098;DHT22;3077;50.922;6.584;2023-10-09T10:38:33;22.10;99.50
6098;DHT22;3077;50.922;6.584;2023-10-09T10:41:16;22.10;98.00
6098;DHT22;3077;50.922;6.584;2023-10-09T10:43:43;22.20;98.20
6098;DHT22;3077;50.922;6.584;2023-10-09T10:46:19;22.30;97.50
6098;DHT22;3077;50.922;6.584;2023-10-09T10:49:11;22.30;97.50
6098;DHT22;3077;50.922;6.584;2023-10-09T10:51:47;22.40;96.60
6098;DHT22;3077;50.922;6.584;2023-10-09T10:54:27;22.40;94.00
6098;DHT22;3077;50.922;6.584;2023-10-09T10:56:59;22.50;94.80
6098;DHT22;3077;50.922;6.584;2023-10-09T10:59:30;22.60;95.40
6098;DHT22;3077;50.922;6.584;2023-10-09T11:02:02;22.60;94.30
6098;DHT22;3077;50.922;6.584;2023-10-09T11:04:34;22.80;92.90
6098;DHT22;3077;50.922;6.584;2023-10-09T11:07:10;22.90;92.50
6098;DHT22;3077;50.922;6.584;2023-10-09T11:09:48;23.00;91.60
6098;DHT22;3077;50.922;6.584;2023-10-09T11:12:27;23.00;89.40
6098;DHT22;3077;50.922;6.584;2023-10-09T11:15:04;23.20;91.70
6098;DHT22;3077;50.922;6.584;2023-10-09T11:18:04;23.40;86.10
6098;DHT22;3077;50.922;6.584;2023-10-09T11:20:36;23.60;84.10
6098;DHT22;3077;50.922;6.584;2023-10-09T11:23:04;23.80;78.20
6098;DHT22;3077;50.922;6.584;2023-10-09T11:25:41;24.00;69.70
6098;DHT22;3077;50.922;6.584;2023-10-09T11:28:24;24.10;78.70
6098;DHT22;3077;50.922;6.584;2023-10-09T11:31:11;24.00;76.00
6098;DHT22;3077;50.922;6.584;2023-10-09T11:33:50;24.30;76.50
6098;DHT22;3077;50.922;6.584;2023-10-09T11:36:21;24.20;73.90
6098;DHT22;3077;50.922;6.584;2023-10-09T11:39:00;24.00;72.40
6098;DHT22;3077;50.922;6.584;2023-10-09T11:41:48;23.80;68.40
6098;DHT22;3077;50.922;6.584;2023-10-09T11:44:15;23.70;73.70
6098;DHT22;3077;50.922;6.584;2023-10-09T11:46:57;23.70;77.10
6098;DHT22;3077;50.922;6.584;2023-10-09T11:49:23;23.70;77.60
6098;DHT22;3077;50.922;6.584;2023-10-09T11:52:07;23.70;75.80
6098;DHT22;3077;50.922;6.584;2023-10-09T11:54:55;23.70;72.50
6098;DHT22;3077;50.922;6.584;2023-10-09T11:57:22;23.70;78.90
6098;DHT22;3077;50.922;6.584;2023-10-09T11:59:58;23.60;76.70
6098;DHT22;3077;50.922;6.584;2023-10-09T12:02:25;23.60;74.30
6098;DHT22;3077;50.922;6.584;2023-10-09T12:04:51;23.60;79.60
6098;DHT22;3077;50.922;6.584;2023-10-09T12:07:17;23.60;76.10
6098;DHT22;3077;50.922;6.584;2023-10-09T12:09:46;23.50;75.40
6098;DHT22;3077;50.922;6.584;2023-10-09T12:12:13;23.60;76.50
6098;DHT22;3077;50.922;6.584;2023-10-09T12:14:39;23.40;80.30
6098;DHT22;3077;50.922;6.584;2023-10-09T12:17:05;23.60;78.50
6098;DHT22;3077;50.922;6.584;2023-10-09T12:19:36;23.60;79.10
6098;DHT22;3077;50.922;6.584;2023-10-09T12:22:03;23.40;80.10
6098;DHT22;3077;50.922;6.584;2023-10-09T12:24:30;23.40;80.10
6098;DHT22;3077;50.922;6.584;2023-10-09T12:26:56;23.50;81.00
6098;DHT22;3077;50.922;6.584;2023-10-09T12:29:23;23.50;82.70
6098;DHT22;3077;50.922;6.584;2023-10-09T12:31:52;23.40;83.10
6098;DHT22;3077;50.922;6.584;2023-10-09T12:34:24;23.30;82.10
6098;DHT22;3077;50.922;6.584;2023-10-09T12:36:56;23.30;88.90
6098;DHT22;3077;50.922;6.584;2023-10-09T12:39:22;23.40;87.10
6098;DHT22;3077;50.922;6.584;2023-10-09T12:41:48;23.40;87.90
6098;DHT22;3077;50.922;6.584;2023-10-09T12:44:14;23.50;86.40
6098;DHT22;3077;50.922;6.584;2023-10-09T12:46:45;23.60;83.70
6098;DHT22;3077;50.922;6.584;2023-10-09T12:49:21;23.70;83.10
6098;DHT22;3077;50.922;6.584;2023-10-09T12:51:53;23.70;80.70
6098;DHT22;3077;50.922;6.584;2023-10-09T12:54:18;23.80;74.10
6098;DHT22;3077;50.922;6.584;2023-10-09T12:56:55;23.80;74.50
6098;DHT22;3077;50.922;6.584;2023-10-09T12:59:21;23.70;68.20
6098;DHT22;3077;50.922;6.584;2023-10-09T13:01:47;23.60;69.20
6098;DHT22;3077;50.922;6.584;2023-10-09T13:04:18;23.60;70.20
6098;DHT22;3077;50.922;6.584;2023-10-09T13:06:48;23.60;72.10
6098;DHT22;3077;50.922;6.584;2023-10-09T13:09:17;23.60;74.40
6098;DHT22;3077;50.922;6.584;2023-10-09T13:12:01;23.40;74.80
6098;DHT22;3077;50.922;6.584;2023-10-09T13:14:28;23.40;71.60
6098;DHT22;3077;50.922;6.584;2023-10-09T13:16:53;23.40;70.30
6098;DHT22;3077;50.922;6.584;2023-10-09T13:19:20;23.30;73.10
6098;DHT22;3077;50.922;6.584;2023-10-09T13:21:49;23.30;70.10
6098;DHT22;3077;50.922;6.584;2023-10-09T13:24:15;23.40;71.00
6098;DHT22;3077;50.922;6.584;2023-10-09T13:26:44;23.40;69.80
6098;DHT22;3077;50.922;6.584;2023-10-09T13:29:11;23.40;70.30
6098;DHT22;3077;50.922;6.584;2023-10-09T13:31:38;23.50;68.80
6098;DHT22;3077;50.922;6.584;2023-10-09T13:34:06;23.60;72.50
6098;DHT22;3077;50.922;6.584;2023-10-09T13:36:32;23.50;72.10
6098;DHT22;3077;50.922;6.584;2023-10-09T13:39:06;23.50;70.60
6098;DHT22;3077;50.922;6.584;2023-10-09T13:41:52;23.50;68.80
6098;DHT22;3077;50.922;6.584;2023-10-09T13:44:28;23.60;67.80
6098;DHT22;3077;50.922;6.584;2023-10-09T13:46:59;23.60;67.50
6098;DHT22;3077;50.922;6.584;2023-10-09T13:49:26;23.50;66.80
6098;DHT22;3077;50.922;6.584;2023-10-09T13:51:59;23.50;69.80
6098;DHT22;3077;50.922;6.584;2023-10-09T13:54:26;23.50;69.00
6098;DHT22;3077;50.922;6.584;2023-10-09T13:56:58;23.50;69.90
6098;DHT22;3077;50.922;6.584;2023-10-09T13:59:24;23.70;68.90
6098;DHT22;3077;50.922;6.584;2023-10-09T14:01:54;23.90;63.60
6098;DHT22;3077;50.922;6.584;2023-10-09T14:04:25;24.20;61.50
6098;DHT22;3077;50.922;6.584;2023-10-09T14:06:52;24.40;59.60
6098;DHT22;3077;50.922;6.584;2023-10-09T14:09:25;24.70;57.80
6098;DHT22;3077;50.922;6.584;2023-10-09T14:11:58;25.00;56.20
6098;DHT22;3077;50.922;6.584;2023-10-09T14:17:16;25.60;53.00
6098;DHT22;3077;50.922;6.584;2023-10-09T14:19:47;25.70;48.00
6098;DHT22;3077;50.922;6.584;2023-10-09T14:22:16;25.90;48.60
6098;DHT22;3077;50.922;6.584;2023-10-09T14:24:46;25.90;46.10
6098;DHT22;3077;50.922;6.584;2023-10-09T14:27:13;26.00;44.00
6098;DHT22;3077;50.922;6.584;2023-10-09T14:29:44;26.00;45.20
6098;DHT22;3077;50.922;6.584;2023-10-09T14:32:10;25.80;42.30
6098;DHT22;3077;50.922;6.584;2023-10-09T14:34:38;25.70;44.20
6098;DHT22;3077;50.922;6.584;2023-10-09T14:37:08;25.60;45.10
6098;DHT22;3077;50.922;6.584;2023-10-09T14:39:40;25.30;47.80
6098;DHT22;3077;50.922;6.584;2023-10-09T14:42:05;25.30;49.80
6098;DHT22;3077;50.922;6.584;2023-10-09T14:44:36;25.40;50.40
6098;DHT22;3077;50.922;6.584;2023-10-09T14:47:04;25.40;46.60
6098;DHT22;3077;50.922;6.584;2023-10-09T14:49:33;25.50;47.20
6098;DHT22;3077;50.922;6.584;2023-10-09T14:52:03;25.20;49.00
6098;DHT22;3077;50.922;6.584;2023-10-09T14:54:29;24.70;50.50
6098;DHT22;3077;50.922;6.584;2023-10-09T14:56:55;24.60;54.00
6098;DHT22;3077;50.922;6.584;2023-10-09T14:59:22;24.80;52.80
6098;DHT22;3077;50.922;6.584;2023-10-09T15:01:48;25.10;53.10
6098;DHT22;3077;50.922;6.584;2023-10-09T15:04:15;25.40;52.30
6098;DHT22;3077;50.922;6.584;2023-10-09T15:06:41;25.90;51.10
6098;DHT22;3077;50.922;6.584;2023-10-09T15:09:07;26.40;46.30
6098;DHT22;3077;50.922;6.584;2023-10-09T15:11:47;26.60;43.10
6098;DHT22;3077;50.922;6.584;2023-10-09T15:14:14;26.80;41.10
6098;DHT22;3077;50.922;6.584;2023-10-09T15:16:39;27.10;39.10
6098;DHT22;3077;50.922;6.584;2023-10-09T15:19:08;27.10;38.40
6098;DHT22;3077;50.922;6.584;2023-10-09T15:21:36;26.60;38.00
6098;DHT22;3077;50.922;6.584;2023-10-09T15:24:09;25.70;39.50
6098;DHT22;3077;50.922;6.584;2023-10-09T15:26:35;25.10;42.80
6098;DHT22;3077;50.922;6.584;2023-10-09T15:29:01;24.90;46.70
6098;DHT22;3077;50.922;6.584;2023-10-09T15:31:29;24.90;47.70
6098;DHT22;3077;50.922;6.584;2023-10-09T15:33:56;25.30;47.50
6098;DHT22;3077;50.922;6.584;2023-10-09T15:36:23;25.90;44.00
6098;DHT22;3077;50.922;6.584;2023-10-09T15:38:50;26.20;42.00
6098;DHT22;3077;50.922;6.584;2023-10-09T15:41:17;26.30;40.10
6098;DHT22;3077;50.922;6.584;2023-10-09T15:43:44;25.90;39.20
6098;DHT22;3077;50.922;6.584;2023-10-09T15:46:12;25.50;41.20
6098;DHT22;3077;50.922;6.584;2023-10-09T15:48:41;24.90;43.40
6098;DHT22;3077;50.922;6.584;2023-10-09T15:51:14;24.10;46.60
6098;DHT22;3077;50.922;6.584;2023-10-09T15:53:46;23.50;51.00
6098;DHT22;3077;50.922;6.584;2023-10-09T15:56:13;23.10;53.70
6098;DHT22;3077;50.922;6.584;2023-10-09T15:58:40;22.90;57.00
6098;DHT22;3077;50.922;6.584;2023-10-09T16:01:18;22.60;59.60
6098;DHT22;3077;50.922;6.584;2023-10-09T16:03:47;22.30;65.40
6098;DHT22;3077;50.922;6.584;2023-10-09T16:06:17;22.00;74.20
6098;DHT22;3077;50.922;6.584;2023-10-09T16:08:45;21.70;79.30
6098;DHT22;3077;50.922;6.584;2023-10-09T16:11:16;21.60;83.70
6098;DHT22;3077;50.922;6.584;2023-10-09T16:13:42;21.50;89.80
6098;DHT22;3077;50.922;6.584;2023-10-09T16:16:07;21.40;91.00
6098;DHT22;3077;50.922;6.584;2023-10-09T16:18:35;21.40;92.40
6098;DHT22;3077;50.922;6.584;2023-10-09T16:21:03;21.40;94.10
6098;DHT22;3077;50.922;6.584;2023-10-09T16:23:31;21.60;92.70
6098;DHT22;3077;50.922;6.584;2023-10-09T16:25:57;22.00;91.70
6098;DHT22;3077;50.922;6.584;2023-10-09T16:28:23;22.10;90.70
6098;DHT22;3077;50.922;6.584;2023-10-09T16:30:48;22.20;88.90
6098;DHT22;3077;50.922;6.584;2023-10-09T16:33:14;22.20;87.50
6098;DHT22;3077;50.922;6.584;2023-10-09T16:35:41;22.20;89.30
6098;DHT22;3077;50.922;6.584;2023-10-09T16:38:09;22.10;90.20
6098;DHT22;3077;50.922;6.584;2023-10-09T16:40:39;21.90;91.00
6098;DHT22;3077;50.922;6.584;2023-10-09T16:43:05;21.80;90.20
6098;DHT22;3077;50.922;6.584;2023-10-09T16:45:31;21.60;90.80
6098;DHT22;3077;50.922;6.584;2023-10-09T16:48:01;21.40;92.20
6098;DHT22;3077;50.922;6.584;2023-10-09T16:50:31;21.30;92.30
6098;DHT22;3077;50.922;6.584;2023-10-09T16:52:57;21.20;92.70
6098;DHT22;3077;50.922;6.584;2023-10-09T16:55:23;21.10;94.20
6098;DHT22;3077;50.922;6.584;2023-10-09T16:57:50;21.00;94.40
6098;DHT22;3077;50.922;6.584;2023-10-09T17:00:17;20.90;95.50